Time;durP1;ratioP1;P1;durP2;ratioP2;P2;SDS_P1;SDS_P2;PMS_P1;PMS_P2;Temp;Humidity;BMP_temperature;BMP_pressure;BME280_temperature;BME280_humidity;BME280_pressure;Samples;Min_cycle;Max_cycle;Signal;HPM_P1;HPM_P2
2022/07/07 00:01:44;;;;;;;9.60;6.13;;;18.10;99.90;;;;;;5292757;28;20031;-72
2022/07/07 00:04:16;;;;;;;9.20;6.07;;;17.90;99.90;;;;;;5292756;28;20024;-72
2022/07/07 00:06:47;;;;;;;8.73;6.30;;;18.20;99.90;;;;;;5292596;28;20080;-72
2022/07/07 00:09:17;;;;;;;9.57;6.60;;;18.00;99.90;;;;;;5292512;28;20047;-72
2022/07/07 00:11:48;;;;;;;8.75;6.55;;;18.00;99.90;;;;;;5292376;28;20049;-73
2022/07/07 00:14:20;;;;;;;6.72;6.13;;;17.90;99.90;;;;;;5292598;28;20461;-72
2022/07/07 00:16:51;;;;;;;7.47;6.70;;;17.90;99.90;;;;;;5292365;28;20020;-74
2022/07/07 00:19:23;;;;;;;8.10;7.30;;;17.80;99.90;;;;;;5292246;28;20047;-73
2022/07/07 00:21:54;;;;;;;8.07;6.82;;;17.90;99.90;;;;;;5292165;28;20028;-74
2022/07/07 00:24:25;;;;;;;10.23;6.80;;;17.90;99.90;;;;;;5292501;28;20027;-73
2022/07/07 00:26:56;;;;;;;8.40;7.15;;;17.90;99.90;;;;;;5292396;28;20016;-74
2022/07/07 00:29:27;;;;;;;7.30;6.60;;;17.90;99.90;;;;;;5292267;28;20055;-72
2022/07/07 00:31:58;;;;;;;8.20;6.55;;;17.70;99.90;;;;;;5292149;28;20462;-73
2022/07/07 00:34:28;;;;;;;9.48;6.93;;;17.80;99.90;;;;;;5292050;28;20027;-73
2022/07/07 00:37:00;;;;;;;8.10;7.35;;;17.90;99.90;;;;;;5292180;28;20024;-72
2022/07/07 00:39:31;;;;;;;8.48;7.50;;;17.80;99.90;;;;;;5291727;28;20077;-73
2022/07/07 00:42:02;;;;;;;7.22;6.45;;;17.90;99.90;;;;;;5291911;28;20055;-72
2022/07/07 00:44:32;;;;;;;9.30;7.57;;;17.80;99.90;;;;;;5290700;28;20508;-74
2022/07/07 00:47:05;;;;;;;7.50;6.70;;;17.70;99.90;;;;;;5292032;28;20024;-74
2022/07/07 00:49:38;;;;;;;8.55;7.30;;;17.80;99.90;;;;;;5291839;28;20039;-73
2022/07/07 00:52:10;;;;;;;9.27;7.78;;;17.90;99.90;;;;;;5290768;28;20028;-72
2022/07/07 00:54:57;;;;;;;8.80;7.90;;;17.90;99.90;;;;;;5291855;28;20036;-73
2022/07/07 00:57:28;;;;;;;9.43;7.75;;;17.80;99.90;;;;;;5291723;28;20085;-72
2022/07/07 01:00:10;;;;;;;8.30;7.50;;;17.90;99.90;;;;;;5291491;28;20099;-72
2022/07/07 01:02:42;;;;;;;11.60;7.57;;;17.70;99.90;;;;;;5291655;28;20027;-72
2022/07/07 01:05:13;;;;;;;9.40;8.07;;;17.60;99.90;;;;;;5291426;28;20111;-72
2022/07/07 01:07:45;;;;;;;10.98;7.97;;;17.80;99.90;;;;;;5291181;28;20027;-74
2022/07/07 01:10:16;;;;;;;8.05;7.35;;;17.90;99.90;;;;;;5291277;28;20076;-74
2022/07/07 01:12:47;;;;;;;8.60;7.70;;;17.80;99.90;;;;;;5290185;28;20418;-74
2022/07/07 01:15:17;;;;;;;8.63;7.00;;;17.70;99.90;;;;;;5291257;28;20118;-73
2022/07/07 01:17:48;;;;;;;9.13;7.20;;;17.80;99.90;;;;;;5291075;28;20035;-73
2022/07/07 01:20:20;;;;;;;8.52;7.45;;;17.90;99.90;;;;;;5291096;28;20039;-72
2022/07/07 01:22:52;;;;;;;7.75;7.05;;;18.00;99.90;;;;;;5291181;28;20467;-72
2022/07/07 01:25:23;;;;;;;9.88;7.28;;;18.00;99.90;;;;;;5291313;28;20020;-75
2022/07/07 01:27:54;;;;;;;7.80;7.03;;;18.00;99.90;;;;;;5290838;28;20483;-74
2022/07/07 01:30:25;;;;;;;7.32;6.60;;;17.80;99.90;;;;;;5289441;28;20022;-73
2022/07/07 01:32:55;;;;;;;9.18;6.93;;;18.00;99.90;;;;;;5290886;28;20371;-73
2022/07/07 01:35:26;;;;;;;8.13;7.28;;;18.10;99.90;;;;;;5290928;28;20024;-74
2022/07/07 01:37:57;;;;;;;7.60;6.78;;;17.90;99.90;;;;;;5289471;28;20031;-72
2022/07/07 01:40:28;;;;;;;8.23;7.03;;;17.90;99.90;;;;;;5290498;28;20044;-73
2022/07/07 01:42:59;;;;;;;7.95;7.05;;;17.80;99.90;;;;;;5290800;28;20026;-72
2022/07/07 01:45:29;;;;;;;8.38;7.25;;;17.80;99.90;;;;;;5290722;28;20022;-72
2022/07/07 01:48:00;;;;;;;8.98;8.10;;;17.60;99.90;;;;;;5290344;28;20455;-73
2022/07/07 01:50:31;;;;;;;10.10;7.50;;;17.60;99.90;;;;;;5290364;28;20081;-75
2022/07/07 01:53:02;;;;;;;12.50;7.00;;;17.60;99.90;;;;;;5290569;28;20026;-72
2022/07/07 01:55:33;;;;;;;8.02;7.22;;;17.70;99.90;;;;;;5290464;28;20023;-73
2022/07/07 01:58:04;;;;;;;9.20;7.43;;;17.70;99.90;;;;;;5290526;28;20094;-74
2022/07/07 02:00:34;;;;;;;8.70;7.78;;;17.70;99.90;;;;;;5290287;28;20087;-71
2022/07/07 02:03:05;;;;;;;8.82;7.93;;;17.50;99.90;;;;;;5290244;28;20054;-73
2022/07/07 02:05:36;;;;;;;8.35;7.55;;;17.40;99.90;;;;;;5290391;28;20030;-73
2022/07/07 02:08:07;;;;;;;13.30;8.65;;;17.60;99.90;;;;;;5290007;28;20039;-73
2022/07/07 02:13:27;;;;;;;8.85;7.95;;;17.60;99.90;;;;;;5290374;28;20388;-73
2022/07/07 02:15:58;;;;;;;9.45;8.55;;;17.60;99.90;;;;;;5290299;28;20029;-73
2022/07/07 02:18:34;;;;;;;10.68;9.27;;;17.60;99.90;;;;;;5290244;28;20023;-73
2022/07/07 02:21:07;;;;;;;10.82;9.73;;;17.60;99.90;;;;;;5290185;28;20072;-73
2022/07/07 02:23:39;;;;;;;10.32;9.32;;;17.60;99.90;;;;;;5290240;28;20163;-73
2022/07/07 02:26:10;;;;;;;12.15;10.07;;;17.50;99.90;;;;;;5289982;28;20022;-74
2022/07/07 02:28:41;;;;;;;10.73;9.63;;;17.40;99.90;;;;;;5290031;28;20466;-75
2022/07/07 02:31:13;;;;;;;10.75;9.65;;;17.50;99.90;;;;;;5289699;28;20036;-73
2022/07/07 02:33:45;;;;;;;10.80;9.70;;;17.60;99.90;;;;;;5288843;28;20020;-72
2022/07/07 02:36:16;;;;;;;12.73;10.57;;;17.50;99.90;;;;;;5290056;28;20038;-74
2022/07/07 02:38:48;;;;;;;11.18;10.07;;;17.40;99.90;;;;;;5289683;28;20044;-74
2022/07/07 02:41:19;;;;;;;11.77;10.60;;;17.40;99.90;;;;;;5289965;28;20545;-74
2022/07/07 02:43:51;;;;;;;13.15;11.35;;;17.40;99.90;;;;;;5290024;28;20015;-74
2022/07/07 02:46:22;;;;;;;13.68;12.27;;;17.60;99.90;;;;;;5289975;28;20035;-72
2022/07/07 02:48:53;;;;;;;17.15;15.35;;;17.40;99.90;;;;;;5289802;28;20092;-73
2022/07/07 02:51:24;;;;;;;14.73;13.15;;;17.70;99.90;;;;;;5289988;28;20031;-73
2022/07/07 02:53:54;;;;;;;13.25;11.85;;;17.50;99.90;;;;;;5289829;28;20032;-73
2022/07/07 02:56:25;;;;;;;13.68;11.23;;;17.70;99.90;;;;;;5289859;28;20019;-74
2022/07/07 02:58:56;;;;;;;19.50;12.27;;;17.50;99.90;;;;;;5288319;28;20076;-72
2022/07/07 03:01:27;;;;;;;16.42;12.73;;;17.60;99.90;;;;;;5288387;28;20035;-72
2022/07/07 03:03:58;;;;;;;18.35;14.02;;;17.40;99.90;;;;;;5289736;28;20011;-73
2022/07/07 03:06:28;;;;;;;14.70;12.88;;;17.60;99.90;;;;;;5289629;28;20374;-72
2022/07/07 03:08:59;;;;;;;15.00;13.40;;;17.50;99.90;;;;;;5288317;28;20184;-73
2022/07/07 03:11:30;;;;;;;17.58;13.43;;;17.50;99.90;;;;;;5289778;28;20036;-72
2022/07/07 03:14:01;;;;;;;15.85;12.82;;;17.60;99.90;;;;;;5289629;28;20108;-73
2022/07/07 03:16:31;;;;;;;15.85;13.43;;;17.70;99.90;;;;;;5292809;28;20039;-72
2022/07/07 03:19:02;;;;;;;14.45;13.00;;;17.60;99.90;;;;;;5293570;28;20051;-72
2022/07/07 03:21:33;;;;;;;15.82;13.75;;;17.70;99.90;;;;;;5293533;28;20019;-72
2022/07/07 03:24:04;;;;;;;15.93;13.77;;;17.70;99.90;;;;;;5293454;28;20177;-74
2022/07/07 03:26:35;;;;;;;14.63;13.13;;;18.00;99.90;;;;;;5293576;28;20027;-74
2022/07/07 03:29:06;;;;;;;15.65;13.30;;;17.90;99.90;;;;;;5293123;28;20391;-73
2022/07/07 03:31:37;;;;;;;17.80;13.00;;;17.90;99.90;;;;;;5293377;28;20020;-71
2022/07/07 03:34:08;;;;;;;16.25;13.38;;;17.90;99.90;;;;;;5293278;28;20375;-73
2022/07/07 03:36:38;;;;;;;16.65;14.50;;;18.10;99.90;;;;;;5293316;28;20102;-73
2022/07/07 03:39:09;;;;;;;19.45;15.65;;;18.20;99.90;;;;;;5292873;28;20049;-72
2022/07/07 03:41:40;;;;;;;14.73;13.32;;;18.30;99.90;;;;;;5293182;28;20016;-73
2022/07/07 03:44:11;;;;;;;17.98;13.90;;;18.30;99.90;;;;;;5293095;28;20059;-72
2022/07/07 03:46:42;;;;;;;17.05;15.38;;;18.40;99.90;;;;;;5293191;28;20026;-72
2022/07/07 03:49:12;;;;;;;15.00;13.55;;;18.60;99.90;;;;;;5292753;28;20032;-73
2022/07/07 04:04:41;;;;;;;16.27;14.63;;;18.60;99.90;;;;;;5308492;27;20390;-72
2022/07/07 04:07:12;;;;;;;13.80;12.35;;;19.10;99.90;;;;;;5308582;27;20023;-72
2022/07/07 04:23:03;;;;;;;13.77;12.48;;;19.40;99.90;;;;;;5308501;27;20390;-73
2022/07/07 04:25:33;;;;;;;13.23;11.93;;;19.90;99.90;;;;;;5308565;28;20026;-72
2022/07/07 04:28:04;;;;;;;12.50;11.15;;;20.10;99.90;;;;;;5308613;27;20031;-72
2022/07/07 04:30:35;;;;;;;14.60;11.25;;;20.20;99.90;;;;;;5308294;27;20019;-73
2022/07/07 04:33:06;;;;;;;12.05;10.95;;;20.40;99.90;;;;;;5308443;28;20028;-72
2022/07/07 04:35:37;;;;;;;13.00;11.55;;;20.60;99.90;;;;;;5307111;28;20023;-73
2022/07/07 04:38:08;;;;;;;13.65;12.35;;;21.00;99.90;;;;;;5308163;27;20023;-72
2022/07/07 04:40:40;;;;;;;13.38;12.18;;;20.70;99.90;;;;;;5308045;27;20031;-72
2022/07/07 04:43:11;;;;;;;12.95;11.60;;;20.90;99.90;;;;;;5308020;27;20022;-72
2022/07/07 04:45:41;;;;;;;14.32;12.82;;;21.30;99.90;;;;;;5308213;27;20724;-72
2022/07/07 04:48:12;;;;;;;12.02;10.93;;;21.30;99.90;;;;;;5308070;27;20023;-73
2022/07/07 04:50:43;;;;;;;11.60;10.40;;;21.70;99.90;;;;;;5306648;28;20419;-72
2022/07/07 04:53:14;;;;;;;13.57;11.57;;;22.20;99.90;;;;;;5307771;27;20035;-72
2022/07/07 04:55:45;;;;;;;10.40;8.00;;;22.40;99.90;;;;;;5306659;28;20023;-72
2022/07/07 04:58:16;;;;;;;9.15;8.13;;;23.20;99.90;;;;;;5306378;28;20031;-73
2022/07/07 05:00:47;;;;;;;8.73;7.82;;;23.50;99.90;;;;;;5306543;28;20072;-73
2022/07/07 05:03:17;;;;;;;7.93;7.22;;;23.60;99.90;;;;;;5306521;27;20027;-73
2022/07/07 05:05:48;;;;;;;8.48;7.22;;;23.40;99.90;;;;;;5306545;28;20019;-72
2022/07/07 05:08:19;;;;;;;10.05;6.63;;;23.60;99.90;;;;;;5307751;27;20023;-73
2022/07/07 05:10:50;;;;;;;6.78;6.25;;;23.90;99.90;;;;;;5307394;28;20367;-76
2022/07/07 05:13:21;;;;;;;7.00;6.38;;;23.40;99.90;;;;;;5307360;27;20526;-75
2022/07/07 05:15:52;;;;;;;7.00;6.40;;;23.80;99.90;;;;;;5307501;28;20339;-72
2022/07/07 05:18:23;;;;;;;6.43;5.90;;;23.90;99.90;;;;;;5307434;28;20409;-74
2022/07/07 05:20:54;;;;;;;7.07;5.90;;;24.10;99.90;;;;;;5307031;27;20126;-73
2022/07/07 05:23:25;;;;;;;6.72;6.13;;;24.10;99.90;;;;;;5296443;28;20161;-73
2022/07/07 05:25:56;;;;;;;6.53;5.93;;;24.30;99.90;;;;;;5293116;28;20023;-73
2022/07/07 05:28:30;;;;;;;6.00;5.40;;;24.50;99.90;;;;;;5293125;28;20020;-73
2022/07/07 05:31:02;;;;;;;6.40;5.75;;;24.50;99.90;;;;;;5292951;28;20028;-74
2022/07/07 05:33:33;;;;;;;6.60;5.82;;;24.60;99.90;;;;;;5292943;28;20015;-73
2022/07/07 05:36:05;;;;;;;5.72;5.22;;;24.70;99.90;;;;;;5292890;28;20034;-72
2022/07/07 05:38:36;;;;;;;6.15;5.40;;;24.90;99.90;;;;;;5292899;28;20085;-74
2022/07/07 05:41:07;;;;;;;5.60;5.07;;;25.00;99.90;;;;;;5291459;28;20501;-74
2022/07/07 05:43:38;;;;;;;5.65;5.15;;;24.90;99.90;;;;;;5291421;28;20016;-72
2022/07/07 05:46:09;;;;;;;5.97;5.38;;;25.00;99.90;;;;;;5292651;28;20024;-75
2022/07/07 05:48:40;;;;;;;8.85;5.10;;;25.00;99.90;;;;;;5292737;28;20099;-74
2022/07/07 05:51:11;;;;;;;8.15;5.10;;;25.00;99.90;;;;;;5292427;28;20043;-72
2022/07/07 05:53:42;;;;;;;8.55;5.30;;;25.00;99.90;;;;;;5292529;28;20367;-75
2022/07/07 05:56:12;;;;;;;12.70;4.90;;;25.30;99.90;;;;;;5292585;28;20473;-72
2022/07/07 05:58:43;;;;;;;8.63;5.57;;;25.40;99.90;;;;;;5292314;28;20027;-74
2022/07/07 06:01:14;;;;;;;7.10;4.88;;;25.40;99.90;;;;;;5292322;28;20046;-73
2022/07/07 06:03:45;;;;;;;6.20;4.82;;;25.40;99.90;;;;;;5292449;28;20032;-74
2022/07/07 06:06:16;;;;;;;6.60;5.10;;;25.70;99.90;;;;;;5292360;28;20022;-74
2022/07/07 06:08:47;;;;;;;11.68;5.53;;;25.50;99.90;;;;;;5292335;28;20027;-73
2022/07/07 06:11:17;;;;;;;9.02;5.28;;;25.50;99.90;;;;;;5292327;28;20035;-74
2022/07/07 06:13:48;;;;;;;6.32;5.38;;;25.80;99.90;;;;;;5292181;28;20046;-73
2022/07/07 06:16:38;;;;;;;5.80;5.20;;;25.80;99.90;;;;;;5290826;28;20023;-74
2022/07/07 06:19:10;;;;;;;6.30;5.20;;;25.60;99.90;;;;;;5292099;28;20016;-72
2022/07/07 06:21:41;;;;;;;7.15;5.20;;;25.80;99.90;;;;;;5291655;28;20040;-72
2022/07/07 06:24:12;;;;;;;5.95;5.03;;;25.90;99.90;;;;;;5292030;28;20046;-73
2022/07/07 06:26:43;;;;;;;6.85;5.53;;;25.80;99.90;;;;;;5291993;27;20020;-73
2022/07/07 06:29:14;;;;;;;6.57;5.90;;;26.00;99.90;;;;;;5291866;28;20047;-72
2022/07/07 06:31:45;;;;;;;8.90;5.38;;;26.00;99.90;;;;;;5291455;28;20032;-73
2022/07/07 06:34:16;;;;;;;7.57;5.50;;;26.00;99.90;;;;;;5290428;28;20028;-73
2022/07/07 06:36:47;;;;;;;5.95;5.45;;;25.90;99.90;;;;;;5291734;28;20008;-73
2022/07/07 06:39:19;;;;;;;7.57;5.20;;;25.90;99.90;;;;;;5290412;28;20034;-73
2022/07/07 06:41:50;;;;;;;6.30;5.10;;;25.80;99.90;;;;;;5291486;28;20015;-73
2022/07/07 06:44:21;;;;;;;7.50;5.10;;;26.10;99.90;;;;;;5291469;28;20032;-73
2022/07/07 06:46:52;;;;;;;5.97;5.32;;;26.10;99.90;;;;;;5291563;28;20498;-74
2022/07/07 06:49:23;;;;;;;6.25;5.40;;;26.20;99.90;;;;;;5291431;28;20062;-72
2022/07/07 06:51:54;;;;;;;7.43;5.30;;;26.20;99.90;;;;;;5291166;28;20498;-75
2022/07/07 06:54:26;;;;;;;6.90;5.78;;;26.40;99.90;;;;;;5291434;28;20016;-72
2022/07/07 06:56:57;;;;;;;7.53;5.00;;;26.40;99.90;;;;;;5291361;28;20015;-72
2022/07/07 06:59:28;;;;;;;6.30;4.80;;;26.40;99.90;;;;;;5291189;28;20474;-71
2022/07/07 07:01:59;;;;;;;7.07;5.35;;;26.60;99.90;;;;;;5291048;28;20022;-72
2022/07/07 07:04:30;;;;;;;6.43;5.82;;;26.50;99.90;;;;;;5291251;28;20027;-73
2022/07/07 07:07:01;;;;;;;7.80;5.20;;;26.70;99.90;;;;;;5291138;28;20757;-72
2022/07/07 07:09:32;;;;;;;6.03;5.15;;;26.60;99.90;;;;;;5291036;28;20442;-74
2022/07/07 07:12:03;;;;;;;6.47;4.90;;;26.70;99.90;;;;;;5290805;28;20063;-74
2022/07/07 07:14:34;;;;;;;7.10;4.95;;;26.70;99.90;;;;;;5291099;28;20035;-75
2022/07/07 07:17:05;;;;;;;6.90;5.18;;;26.80;99.90;;;;;;5290882;28;20023;-73
2022/07/07 07:19:35;;;;;;;5.30;4.80;;;26.80;99.90;;;;;;5290684;28;20068;-72
2022/07/07 07:22:06;;;;;;;8.75;5.00;;;27.10;99.90;;;;;;5290289;28;20065;-75
2022/07/07 07:24:37;;;;;;;11.15;5.38;;;27.10;99.90;;;;;;5290702;27;20061;-73
2022/07/07 07:27:08;;;;;;;9.80;5.45;;;27.00;99.90;;;;;;5290848;28;20031;-73
2022/07/07 07:29:39;;;;;;;6.68;4.88;;;27.20;99.90;;;;;;5290641;28;20073;-72
2022/07/07 07:32:10;;;;;;;6.47;4.90;;;27.20;99.90;;;;;;5290565;28;20112;-72
2022/07/07 07:34:41;;;;;;;6.38;5.68;;;27.10;99.90;;;;;;5290506;28;20035;-73
2022/07/07 07:37:11;;;;;;;6.55;5.35;;;26.80;99.90;;;;;;5290636;28;20054;-73
2022/07/07 07:39:42;;;;;;;7.25;5.38;;;27.10;99.90;;;;;;5290499;28;20484;-73
2022/07/07 07:42:13;;;;;;;11.10;5.45;;;26.90;99.90;;;;;;5290390;28;20378;-73
2022/07/07 07:47:33;;;;;;;;;;;26.90;99.90;;;;;;5291102;28;20031;-74
2022/07/07 07:50:05;;;;;;;7.28;5.80;;;26.90;99.90;;;;;;5290348;28;19908;-74
2022/07/07 07:52:36;;;;;;;7.22;5.45;;;26.80;99.90;;;;;;5290097;28;20360;-74
2022/07/07 07:55:08;;;;;;;6.75;5.38;;;26.70;99.90;;;;;;5290167;28;20034;-73
2022/07/07 07:57:40;;;;;;;8.75;5.25;;;27.30;99.90;;;;;;5290180;28;20386;-72
2022/07/07 08:00:13;;;;;;;7.43;6.30;;;27.50;99.90;;;;;;5290118;28;20528;-71
2022/07/07 08:02:45;;;;;;;7.30;6.00;;;26.90;99.90;;;;;;5290299;28;20474;-72
2022/07/07 08:05:18;;;;;;;7.72;6.20;;;26.70;99.90;;;;;;5290153;28;20028;-73
2022/07/07 08:07:49;;;;;;;9.15;6.40;;;27.00;99.90;;;;;;5290309;28;20030;-77
2022/07/07 08:10:20;;;;;;;12.95;6.28;;;27.40;99.90;;;;;;5290105;28;20033;-72
2022/07/07 08:12:51;;;;;;;9.30;6.50;;;27.50;99.90;;;;;;5290016;28;20027;-76
2022/07/07 08:15:22;;;;;;;11.30;6.25;;;27.50;99.90;;;;;;5290104;28;20016;-76
2022/07/07 08:17:52;;;;;;;8.80;6.35;;;27.70;99.90;;;;;;5290114;28;20026;-72
2022/07/07 08:20:23;;;;;;;7.75;6.60;;;27.50;99.90;;;;;;5289827;28;20031;-72
2022/07/07 08:22:54;;;;;;;13.10;6.95;;;27.60;99.90;;;;;;5289721;28;20048;-75
2022/07/07 08:25:25;;;;;;;9.40;6.85;;;27.10;99.90;;;;;;5289865;28;20028;-72
2022/07/07 08:27:56;;;;;;;9.30;6.93;;;27.50;99.90;;;;;;5289873;28;20032;-76
2022/07/07 08:30:27;;;;;;;11.07;7.85;;;27.80;99.90;;;;;;5289953;28;20028;-74
2022/07/07 08:32:57;;;;;;;11.65;7.72;;;28.00;99.90;;;;;;5289858;28;20130;-72
2022/07/07 08:35:28;;;;;;;9.18;7.78;;;28.10;99.90;;;;;;5289867;28;20119;-72
2022/07/07 08:37:59;;;;;;;10.55;8.40;;;27.80;99.90;;;;;;5289731;28;20110;-72
2022/07/07 08:40:30;;;;;;;12.55;8.48;;;28.10;99.90;;;;;;5289884;28;20023;-75
2022/07/07 08:43:01;;;;;;;14.90;7.18;;;28.20;99.90;;;;;;5289826;28;20030;-77
2022/07/07 08:45:33;;;;;;;13.05;7.97;;;28.20;99.90;;;;;;5289855;28;20023;-76
2022/07/07 08:48:03;;;;;;;13.52;8.13;;;27.90;99.90;;;;;;5289709;28;20065;-74
2022/07/07 08:50:38;;;;;;;20.95;8.57;;;27.50;99.90;;;;;;5289577;28;20360;-73
2022/07/07 08:53:12;;;;;;;11.93;8.75;;;27.40;99.90;;;;;;5289700;28;20091;-76
2022/07/07 08:55:45;;;;;;;9.38;8.23;;;27.60;99.90;;;;;;5289748;28;20020;-77
2022/07/07 08:58:18;;;;;;;13.18;9.23;;;27.10;99.90;;;;;;5291604;28;20053;-73
2022/07/07 09:00:49;;;;;;;13.75;8.82;;;27.30;99.90;;;;;;5293756;27;20106;-76
2022/07/07 09:03:20;;;;;;;17.17;8.88;;;27.50;99.90;;;;;;5293610;28;20110;-72
2022/07/07 09:05:51;;;;;;;19.83;8.57;;;27.80;99.90;;;;;;5293643;28;20023;-76
2022/07/07 09:08:24;;;;;;;18.15;8.70;;;27.60;99.90;;;;;;5293405;28;20038;-75
2022/07/07 09:10:54;;;;;;;9.35;8.23;;;28.00;99.90;;;;;;5293311;28;20028;-76
2022/07/07 09:13:33;;;;;;;12.00;8.30;;;27.60;99.90;;;;;;5293265;28;20390;-73
2022/07/07 09:16:16;;;;;;;11.18;8.35;;;27.10;99.90;;;;;;5293382;28;20110;-74
2022/07/07 09:18:47;;;;;;;12.77;8.02;;;27.10;99.90;;;;;;5293154;28;20038;-77
2022/07/07 09:21:30;;;;;;;15.20;8.45;;;27.10;99.90;;;;;;5292875;28;20048;-73
2022/07/07 09:24:03;;;;;;;16.80;8.32;;;27.10;99.90;;;;;;5293098;28;20482;-73
2022/07/07 09:26:40;;;;;;;17.30;8.15;;;26.60;99.90;;;;;;5292649;28;20028;-77
2022/07/07 09:29:13;;;;;;;14.02;8.13;;;26.90;99.90;;;;;;5293232;28;20383;-75
2022/07/07 09:31:57;;;;;;;11.75;8.10;;;26.90;99.90;;;;;;5292849;28;20039;-77
2022/07/07 09:34:30;;;;;;;16.25;8.63;;;27.00;99.90;;;;;;5292868;28;20023;-75
2022/07/07 09:39:57;;;;;;;18.92;8.40;;;27.00;99.90;;;;;;5293053;28;20120;-74
2022/07/07 09:42:29;;;;;;;13.27;7.93;;;27.10;99.90;;;;;;5292628;28;20409;-74
2022/07/07 09:45:05;;;;;;;17.05;8.25;;;26.70;99.90;;;;;;5292691;28;20024;-76
2022/07/07 09:47:36;;;;;;;15.50;8.27;;;27.00;99.90;;;;;;5292604;28;20027;-72
2022/07/07 09:50:09;;;;;;;15.93;8.10;;;27.10;99.90;;;;;;5292336;28;20076;-74
2022/07/07 09:52:45;;;;;;;15.20;8.45;;;26.70;99.90;;;;;;5292266;28;20043;-74
2022/07/07 09:55:15;;;;;;;13.80;7.60;;;26.20;99.90;;;;;;5292414;28;20047;-72
2022/07/07 09:57:46;;;;;;;10.68;7.53;;;26.80;99.90;;;;;;5292350;28;20074;-72
2022/07/07 10:00:17;;;;;;;21.17;8.48;;;26.40;99.90;;;;;;5292316;28;20027;-72
2022/07/07 10:02:50;;;;;;;14.00;7.60;;;26.50;99.90;;;;;;5292462;28;20066;-76
2022/07/07 10:05:24;;;;;;;13.15;7.47;;;26.60;99.90;;;;;;5292454;27;20435;-72
2022/07/07 10:07:57;;;;;;;12.38;7.32;;;26.70;99.90;;;;;;5292381;28;20027;-72
2022/07/07 10:10:29;;;;;;;13.70;7.82;;;26.50;99.90;;;;;;5292190;28;20053;-75
2022/07/07 10:13:02;;;;;;;12.75;7.43;;;26.40;99.90;;;;;;5292088;28;20031;-71
2022/07/07 10:15:34;;;;;;;13.32;6.95;;;26.30;99.90;;;;;;5292118;28;20521;-73
2022/07/07 10:18:05;;;;;;;14.30;7.93;;;26.40;99.90;;;;;;5292069;28;20047;-71
2022/07/07 10:20:36;;;;;;;11.88;7.28;;;26.50;99.90;;;;;;5291899;28;20035;-74
2022/07/07 10:23:07;;;;;;;13.30;7.65;;;26.10;99.90;;;;;;5290656;28;20051;-72
2022/07/07 10:25:38;;;;;;;11.98;6.85;;;27.00;99.90;;;;;;5292023;28;20034;-75
2022/07/07 10:28:09;;;;;;;9.57;6.40;;;26.80;99.90;;;;;;5292071;28;20020;-75
2022/07/07 10:30:40;;;;;;;12.23;7.30;;;26.90;99.90;;;;;;5291750;28;20035;-76
2022/07/07 10:33:13;;;;;;;14.70;6.95;;;26.70;99.90;;;;;;5291853;28;20030;-76
2022/07/07 10:35:45;;;;;;;11.38;6.85;;;26.60;99.90;;;;;;5291863;28;20014;-75
2022/07/07 10:38:18;;;;;;;10.90;6.28;;;26.60;99.90;;;;;;5291836;28;20061;-76
2022/07/07 10:40:53;;;;;;;15.70;7.40;;;27.10;99.90;;;;;;5291635;28;20110;-73
2022/07/07 10:43:38;;;;;;;8.57;6.25;;;26.30;99.90;;;;;;5291580;28;20031;-72
2022/07/07 10:46:09;;;;;;;15.77;6.68;;;26.30;99.90;;;;;;5291482;28;20028;-73
2022/07/07 10:48:42;;;;;;;10.55;6.18;;;26.20;99.90;;;;;;5291504;28;20332;-72
2022/07/07 10:51:24;;;;;;;12.27;6.88;;;26.30;99.90;;;;;;5291244;28;20093;-72
2022/07/07 10:54:01;;;;;;;11.23;6.10;;;26.80;99.90;;;;;;5291304;28;20015;-72
2022/07/07 10:56:51;;;;;;;13.02;6.50;;;26.40;99.90;;;;;;5291176;28;20032;-72
2022/07/07 10:59:23;;;;;;;13.60;7.75;;;26.60;99.90;;;;;;5290954;28;20074;-71
2022/07/07 11:02:03;;;;;;;11.00;6.30;;;26.70;99.90;;;;;;5291120;28;20098;-73
2022/07/07 11:04:54;;;;;;;;;;;27.10;99.90;;;;;;5291569;28;20016;-73
2022/07/07 11:07:27;;;;;;;19.40;6.03;;;26.60;99.90;;;;;;5291083;27;19903;-76
2022/07/07 11:10:09;;;;;;;11.82;6.07;;;27.10;99.90;;;;;;5291097;28;20379;-72
2022/07/07 11:12:43;;;;;;;10.40;5.20;;;27.90;99.90;;;;;;5290914;28;20129;-73
2022/07/07 11:15:27;;;;;;;10.93;5.45;;;27.10;99.90;;;;;;5290879;28;20020;-72
2022/07/07 11:17:59;;;;;;;11.55;5.82;;;27.10;99.90;;;;;;5290886;28;20088;-74
2022/07/07 11:20:31;;;;;;;9.18;5.50;;;27.60;99.90;;;;;;5290172;28;20474;-76
2022/07/07 11:23:10;;;;;;;8.70;5.25;;;27.40;99.90;;;;;;5290988;28;20122;-72
2022/07/07 11:25:42;;;;;;;12.27;4.97;;;27.70;99.90;;;;;;5290688;28;20442;-76
2022/07/07 11:28:13;;;;;;;12.93;6.07;;;28.10;99.90;;;;;;5290598;28;20039;-72
2022/07/07 11:30:44;;;;;;;9.82;5.55;;;27.50;99.90;;;;;;5289419;28;20459;-71
2022/07/07 11:33:15;;;;;;;9.70;5.35;;;27.40;99.90;;;;;;5290528;28;20035;-72
2022/07/07 11:35:46;;;;;;;12.50;5.65;;;27.20;99.90;;;;;;5290609;28;20463;-72
2022/07/07 11:38:16;;;;;;;7.85;5.07;;;27.90;99.90;;;;;;5290310;28;20043;-74
2022/07/07 11:40:47;;;;;;;9.75;5.32;;;27.40;99.90;;;;;;5290407;28;20030;-72
2022/07/07 11:43:25;;;;;;;9.55;5.60;;;26.80;99.90;;;;;;5290331;28;20034;-73
2022/07/07 11:45:55;;;;;;;9.40;5.32;;;27.20;99.90;;;;;;5290582;28;20008;-71
2022/07/07 11:48:44;;;;;;;12.93;5.53;;;27.20;99.90;;;;;;5290411;28;20027;-74
2022/07/07 11:51:16;;;;;;;12.15;5.68;;;27.40;99.90;;;;;;5290264;28;20398;-73
2022/07/07 11:53:59;;;;;;;8.55;5.20;;;27.90;99.90;;;;;;5290372;28;20028;-73
2022/07/07 11:56:32;;;;;;;8.20;5.38;;;27.80;99.90;;;;;;5290262;28;20019;-77
2022/07/07 11:59:04;;;;;;;7.32;4.80;;;28.00;99.90;;;;;;5290220;28;20457;-74
2022/07/07 12:01:37;;;;;;;12.98;5.18;;;28.00;99.90;;;;;;5290213;28;20046;-72
2022/07/07 12:04:16;;;;;;;9.30;5.63;;;27.90;99.90;;;;;;5290202;28;20023;-72
2022/07/07 12:06:47;;;;;;;7.90;5.32;;;27.20;99.90;;;;;;5290084;28;20042;-72
2022/07/07 12:09:19;;;;;;;8.98;5.53;;;26.90;99.90;;;;;;5290200;28;20039;-72
2022/07/07 12:11:50;;;;;;;11.00;6.00;;;26.60;99.90;;;;;;5289846;28;20054;-76
2022/07/07 12:14:21;;;;;;;9.73;5.72;;;27.10;99.90;;;;;;5290099;28;20110;-72
2022/07/07 12:16:52;;;;;;;10.38;5.60;;;27.30;99.90;;;;;;5271201;28;20374;-73
2022/07/07 12:19:23;;;;;;;14.63;6.35;;;27.80;99.90;;;;;;5288672;28;20493;-74
2022/07/07 12:21:54;;;;;;;15.48;6.07;;;26.80;99.90;;;;;;5289679;28;20047;-75
2022/07/07 12:24:25;;;;;;;11.98;5.75;;;27.60;99.90;;;;;;5289975;28;20485;-72
2022/07/07 12:26:56;;;;;;;12.60;5.60;;;27.80;99.90;;;;;;5290096;28;20023;-71
2022/07/07 12:29:27;;;;;;;7.88;5.45;;;27.90;99.90;;;;;;5289834;28;20352;-73
2022/07/07 12:31:57;;;;;;;10.20;5.78;;;27.30;99.90;;;;;;5289903;28;20040;-73
2022/07/07 12:34:38;;;;;;;12.82;6.22;;;26.80;99.90;;;;;;5294134;28;20390;-72
2022/07/07 12:37:09;;;;;;;9.95;6.13;;;26.20;99.90;;;;;;5294343;28;20471;-74
2022/07/07 12:39:43;;;;;;;11.70;6.88;;;26.40;99.90;;;;;;5294006;28;20026;-74
2022/07/07 12:42:24;;;;;;;12.15;6.47;;;26.60;99.90;;;;;;5294045;28;20119;-72
2022/07/07 12:45:09;;;;;;;8.55;6.65;;;26.40;99.90;;;;;;5293985;28;20103;-73
2022/07/07 12:48:16;;;;;;;14.73;6.70;;;26.40;99.90;;;;;;5294010;28;20467;-73
2022/07/07 12:50:48;;;;;;;11.88;6.32;;;27.30;99.90;;;;;;5293596;28;20039;-71
2022/07/07 12:53:19;;;;;;;10.60;6.00;;;27.60;99.90;;;;;;5293944;28;20027;-77
2022/07/07 12:55:50;;;;;;;13.32;5.90;;;27.10;99.90;;;;;;5293811;28;20014;-72
2022/07/07 12:58:22;;;;;;;10.77;5.82;;;26.70;99.90;;;;;;5293555;28;20035;-74
2022/07/07 13:01:00;;;;;;;10.65;6.10;;;26.80;99.90;;;;;;5293593;28;20031;-73
2022/07/07 13:03:32;;;;;;;17.67;7.13;;;26.70;99.90;;;;;;5293503;28;20546;-72
2022/07/07 13:06:03;;;;;;;10.68;6.75;;;26.40;99.90;;;;;;5293573;27;20037;-72
2022/07/07 13:08:34;;;;;;;11.52;6.47;;;26.80;99.90;;;;;;5293394;28;20024;-76
2022/07/07 13:11:06;;;;;;;15.45;6.68;;;26.50;99.90;;;;;;5293445;28;20092;-73
2022/07/07 13:13:36;;;;;;;13.88;6.32;;;26.60;99.90;;;;;;5293275;28;20576;-74
2022/07/07 13:16:08;;;;;;;12.18;6.07;;;27.20;99.90;;;;;;5293286;28;20016;-72
2022/07/07 13:18:39;;;;;;;13.35;5.97;;;26.70;99.90;;;;;;5293285;28;20020;-72
2022/07/07 13:21:10;;;;;;;8.63;6.30;;;26.60;99.90;;;;;;5291695;28;20057;-74
2022/07/07 13:23:41;;;;;;;11.57;6.15;;;26.90;99.90;;;;;;5293283;28;20032;-72
2022/07/07 13:26:12;;;;;;;11.38;6.50;;;27.50;99.90;;;;;;5291969;28;20399;-71
2022/07/07 13:28:43;;;;;;;13.73;6.18;;;27.20;99.90;;;;;;5293146;28;20398;-71
2022/07/07 13:31:14;;;;;;;7.90;5.43;;;27.60;99.90;;;;;;5293082;28;20023;-71
2022/07/07 13:33:45;;;;;;;12.50;6.07;;;27.20;99.90;;;;;;5293019;28;20035;-74
2022/07/07 13:36:15;;;;;;;11.38;5.97;;;26.70;99.90;;;;;;5291700;28;20020;-73
2022/07/07 13:38:47;;;;;;;11.85;5.65;;;26.40;99.90;;;;;;5292786;28;20463;-71
2022/07/07 13:41:18;;;;;;;7.63;5.90;;;26.60;99.90;;;;;;5292642;28;20034;-73